sensor_id;sensor_type;location;lat;lon;timestamp;pressure;altitude;pressure_sealevel;temperature;humidity
64139;BME280;50435;43.700;-79.318;2022-10-15T00:01:06;99930.42;;;11.43;51.83
64139;BME280;50435;43.700;-79.318;2022-10-15T00:03:35;99930.51;;;11.31;51.57
64139;BME280;50435;43.700;-79.318;2022-10-15T00:06:04;99930.59;;;10.89;51.88
64139;BME280;50435;43.700;-79.318;2022-10-15T00:08:32;99927.87;;;10.92;51.78
64139;BME280;50435;43.700;-79.318;2022-10-15T00:11:03;99931.90;;;10.95;51.67
64139;BME280;50435;43.700;-79.318;2022-10-15T00:13:31;99927.71;;;10.97;51.73
64139;BME280;50435;43.700;-79.318;2022-10-15T00:15:58;99929.98;;;10.95;51.63
64139;BME280;50435;43.700;-79.318;2022-10-15T00:18:26;99932.48;;;10.89;51.77
64139;BME280;50435;43.700;-79.318;2022-10-15T00:20:54;99933.26;;;10.87;51.79
64139;BME280;50435;43.700;-79.318;2022-10-15T00:23:22;99935.11;;;10.82;51.87
64139;BME280;50435;43.700;-79.318;2022-10-15T00:25:49;99939.63;;;10.48;51.98
64139;BME280;50435;43.700;-79.318;2022-10-15T00:28:17;99933.27;;;10.93;51.61
64139;BME280;50435;43.700;-79.318;2022-10-15T00:30:45;99935.38;;;10.81;51.79
64139;BME280;50435;43.700;-79.318;2022-10-15T00:33:12;99936.98;;;10.80;51.71
64139;BME280;50435;43.700;-79.318;2022-10-15T00:35:40;99933.21;;;10.79;51.79
64139;BME280;50435;43.700;-79.318;2022-10-15T00:38:07;99934.29;;;10.76;51.79
64139;BME280;50435;43.700;-79.318;2022-10-15T00:40:34;99936.77;;;10.85;52.09
64139;BME280;50435;43.700;-79.318;2022-10-15T00:43:02;99937.76;;;10.53;52.15
64139;BME280;50435;43.700;-79.318;2022-10-15T00:45:30;99939.74;;;10.67;51.96
64139;BME280;50435;43.700;-79.318;2022-10-15T00:47:58;99941.66;;;10.57;52.00
64139;BME280;50435;43.700;-79.318;2022-10-15T00:50:27;99940.11;;;10.45;52.17
64139;BME280;50435;43.700;-79.318;2022-10-15T00:52:59;99940.69;;;10.84;51.83
64139;BME280;50435;43.700;-79.318;2022-10-15T00:55:31;99935.94;;;10.53;51.84
64139;BME280;50435;43.700;-79.318;2022-10-15T00:58:02;99934.89;;;10.45;52.01
64139;BME280;50435;43.700;-79.318;2022-10-15T01:00:31;99931.39;;;10.43;52.06
64139;BME280;50435;43.700;-79.318;2022-10-15T01:02:59;99936.40;;;10.58;52.10
64139;BME280;50435;43.700;-79.318;2022-10-15T01:05:26;99937.28;;;10.58;52.08
64139;BME280;50435;43.700;-79.318;2022-10-15T01:07:54;99938.61;;;10.37;52.03
64139;BME280;50435;43.700;-79.318;2022-10-15T01:10:22;99933.78;;;10.34;52.16
64139;BME280;50435;43.700;-79.318;2022-10-15T01:13:00;99934.19;;;10.80;52.07
64139;BME280;50435;43.700;-79.318;2022-10-15T01:15:36;99936.05;;;10.66;52.00
64139;BME280;50435;43.700;-79.318;2022-10-15T01:18:10;99940.26;;;10.37;51.85
64139;BME280;50435;43.700;-79.318;2022-10-15T01:21:17;99940.83;;;10.40;51.81
64139;BME280;50435;43.700;-79.318;2022-10-15T01:25:08;99940.48;;;10.48;52.13
64139;BME280;50435;43.700;-79.318;2022-10-15T01:27:43;99941.91;;;10.53;51.99
64139;BME280;50435;43.700;-79.318;2022-10-15T01:30:19;99937.00;;;10.48;52.13
64139;BME280;50435;43.700;-79.318;2022-10-15T01:32:58;99935.33;;;10.65;51.89
64139;BME280;50435;43.700;-79.318;2022-10-15T01:35:33;99934.89;;;10.53;52.17
64139;BME280;50435;43.700;-79.318;2022-10-15T01:38:08;99935.44;;;10.87;51.88
64139;BME280;50435;43.700;-79.318;2022-10-15T01:40:45;99935.02;;;10.67;51.95
64139;BME280;50435;43.700;-79.318;2022-10-15T01:43:20;99932.17;;;10.44;52.01
64139;BME280;50435;43.700;-79.318;2022-10-15T01:45:53;99933.54;;;10.68;52.25
64139;BME280;50435;43.700;-79.318;2022-10-15T01:48:25;99935.14;;;10.60;52.11
64139;BME280;50435;43.700;-79.318;2022-10-15T01:50:56;99936.65;;;10.87;52.28
64139;BME280;50435;43.700;-79.318;2022-10-15T01:53:27;99940.06;;;10.65;52.18
64139;BME280;50435;43.700;-79.318;2022-10-15T01:55:58;99936.32;;;10.64;52.36
64139;BME280;50435;43.700;-79.318;2022-10-15T01:58:29;99938.60;;;11.06;52.27
64139;BME280;50435;43.700;-79.318;2022-10-15T02:00:57;99937.17;;;10.78;52.62
64139;BME280;50435;43.700;-79.318;2022-10-15T02:03:25;99939.26;;;10.57;52.82
64139;BME280;50435;43.700;-79.318;2022-10-15T02:05:58;99945.79;;;10.93;52.47
64139;BME280;50435;43.700;-79.318;2022-10-15T02:08:36;99943.01;;;10.75;52.36
64139;BME280;50435;43.700;-79.318;2022-10-15T02:11:09;99936.44;;;10.79;52.35
64139;BME280;50435;43.700;-79.318;2022-10-15T02:13:45;99935.54;;;10.75;52.67
64139;BME280;50435;43.700;-79.318;2022-10-15T02:16:21;99931.89;;;10.64;52.73
64139;BME280;50435;43.700;-79.318;2022-10-15T02:18:55;99927.53;;;10.63;53.11
64139;BME280;50435;43.700;-79.318;2022-10-15T02:21:28;99928.15;;;10.60;53.03
64139;BME280;50435;43.700;-79.318;2022-10-15T02:24:04;99931.35;;;10.64;53.19
64139;BME280;50435;43.700;-79.318;2022-10-15T02:26:34;99923.57;;;10.70;52.93
64139;BME280;50435;43.700;-79.318;2022-10-15T02:29:04;99926.61;;;10.60;53.39
64139;BME280;50435;43.700;-79.318;2022-10-15T02:31:35;99921.73;;;10.56;53.43
64139;BME280;50435;43.700;-79.318;2022-10-15T02:34:05;99923.14;;;10.58;53.67
64139;BME280;50435;43.700;-79.318;2022-10-15T02:36:34;99923.81;;;10.66;53.58
64139;BME280;50435;43.700;-79.318;2022-10-15T02:39:06;99926.61;;;10.87;53.53
64139;BME280;50435;43.700;-79.318;2022-10-15T02:41:37;99920.23;;;10.71;53.74
64139;BME280;50435;43.700;-79.318;2022-10-15T02:44:05;99915.20;;;10.76;53.46
64139;BME280;50435;43.700;-79.318;2022-10-15T02:46:33;99916.96;;;10.80;53.83
64139;BME280;50435;43.700;-79.318;2022-10-15T02:49:01;99919.69;;;10.82;53.44
64139;BME280;50435;43.700;-79.318;2022-10-15T02:51:30;99916.50;;;10.78;53.35
64139;BME280;50435;43.700;-79.318;2022-10-15T02:53:58;99919.96;;;10.56;53.47
64139;BME280;50435;43.700;-79.318;2022-10-15T02:56:26;99918.24;;;10.92;53.19
64139;BME280;50435;43.700;-79.318;2022-10-15T02:58:54;99919.60;;;10.96;53.24
64139;BME280;50435;43.700;-79.318;2022-10-15T03:01:21;99915.69;;;10.82;53.12
64139;BME280;50435;43.700;-79.318;2022-10-15T03:03:48;99918.16;;;10.87;53.17
64139;BME280;50435;43.700;-79.318;2022-10-15T03:06:17;99918.08;;;11.00;53.00
64139;BME280;50435;43.700;-79.318;2022-10-15T03:08:44;99915.15;;;10.73;53.24
64139;BME280;50435;43.700;-79.318;2022-10-15T03:11:12;99910.49;;;11.04;53.08
64139;BME280;50435;43.700;-79.318;2022-10-15T03:13:40;99910.34;;;11.02;52.84
64139;BME280;50435;43.700;-79.318;2022-10-15T03:16:09;99906.33;;;11.09;52.88
64139;BME280;50435;43.700;-79.318;2022-10-15T03:18:37;99900.35;;;11.12;52.84
64139;BME280;50435;43.700;-79.318;2022-10-15T03:21:05;99898.38;;;11.02;53.01
64139;BME280;50435;43.700;-79.318;2022-10-15T03:23:32;99897.78;;;11.02;52.98
64139;BME280;50435;43.700;-79.318;2022-10-15T03:26:00;99898.94;;;10.93;52.67
64139;BME280;50435;43.700;-79.318;2022-10-15T03:28:27;99895.70;;;11.26;52.60
64139;BME280;50435;43.700;-79.318;2022-10-15T03:30:55;99894.75;;;11.15;52.73
64139;BME280;50435;43.700;-79.318;2022-10-15T03:33:23;99893.34;;;11.13;52.60
64139;BME280;50435;43.700;-79.318;2022-10-15T03:35:51;99894.75;;;11.01;53.19
64139;BME280;50435;43.700;-79.318;2022-10-15T03:38:19;99888.02;;;11.23;52.98
64139;BME280;50435;43.700;-79.318;2022-10-15T03:40:46;99886.03;;;11.08;52.78
64139;BME280;50435;43.700;-79.318;2022-10-15T03:43:13;99882.48;;;11.33;52.51
64139;BME280;50435;43.700;-79.318;2022-10-15T03:45:41;99879.20;;;11.31;52.12
64139;BME280;50435;43.700;-79.318;2022-10-15T03:48:08;99883.14;;;11.26;52.98
64139;BME280;50435;43.700;-79.318;2022-10-15T03:50:35;99878.89;;;11.46;52.39
64139;BME280;50435;43.700;-79.318;2022-10-15T03:53:04;99873.26;;;11.42;52.14
64139;BME280;50435;43.700;-79.318;2022-10-15T03:55:31;99873.91;;;11.11;52.68
64139;BME280;50435;43.700;-79.318;2022-10-15T03:57:59;99869.65;;;11.41;52.62
64139;BME280;50435;43.700;-79.318;2022-10-15T04:00:27;99862.92;;;11.48;52.55
64139;BME280;50435;43.700;-79.318;2022-10-15T04:02:55;99861.58;;;11.72;52.04
64139;BME280;50435;43.700;-79.318;2022-10-15T04:05:22;99866.67;;;11.36;52.64
64139;BME280;50435;43.700;-79.318;2022-10-15T04:07:50;99863.24;;;10.80;53.22
64139;BME280;50435;43.700;-79.318;2022-10-15T04:10:18;99864.37;;;11.25;53.11
64139;BME280;50435;43.700;-79.318;2022-10-15T04:12:46;99861.46;;;10.77;53.36
64139;BME280;50435;43.700;-79.318;2022-10-15T04:15:14;99858.99;;;11.05;53.39
64139;BME280;50435;43.700;-79.318;2022-10-15T04:17:41;99856.88;;;10.88;53.15
64139;BME280;50435;43.700;-79.318;2022-10-15T04:20:10;99858.05;;;10.64;53.55
64139;BME280;50435;43.700;-79.318;2022-10-15T04:22:38;99858.63;;;10.62;53.43
64139;BME280;50435;43.700;-79.318;2022-10-15T04:25:07;99852.99;;;11.02;53.34
64139;BME280;50435;43.700;-79.318;2022-10-15T04:27:34;99852.14;;;10.66;53.42
64139;BME280;50435;43.700;-79.318;2022-10-15T04:30:02;99850.62;;;10.58;53.56
64139;BME280;50435;43.700;-79.318;2022-10-15T04:32:30;99850.01;;;10.86;53.47
64139;BME280;50435;43.700;-79.318;2022-10-15T04:34:58;99847.04;;;10.53;53.49
64139;BME280;50435;43.700;-79.318;2022-10-15T04:37:26;99844.65;;;10.75;53.73
64139;BME280;50435;43.700;-79.318;2022-10-15T04:39:54;99847.18;;;10.79;53.54
64139;BME280;50435;43.700;-79.318;2022-10-15T04:42:21;99841.51;;;10.77;53.67
64139;BME280;50435;43.700;-79.318;2022-10-15T04:44:49;99839.79;;;10.58;53.82
64139;BME280;50435;43.700;-79.318;2022-10-15T04:47:17;99839.79;;;10.67;53.42
64139;BME280;50435;43.700;-79.318;2022-10-15T04:49:44;99832.49;;;10.62;53.78
64139;BME280;50435;43.700;-79.318;2022-10-15T04:52:12;99831.15;;;10.67;53.68
64139;BME280;50435;43.700;-79.318;2022-10-15T04:54:40;99825.43;;;10.77;53.39
64139;BME280;50435;43.700;-79.318;2022-10-15T04:57:07;99824.54;;;10.89;53.66
64139;BME280;50435;43.700;-79.318;2022-10-15T04:59:35;99826.40;;;10.64;53.63
64139;BME280;50435;43.700;-79.318;2022-10-15T05:02:03;99822.44;;;10.49;53.35
64139;BME280;50435;43.700;-79.318;2022-10-15T05:04:31;99826.01;;;10.63;53.61
64139;BME280;50435;43.700;-79.318;2022-10-15T05:06:58;99820.49;;;10.67;53.37
64139;BME280;50435;43.700;-79.318;2022-10-15T05:09:26;99820.98;;;10.84;53.62
64139;BME280;50435;43.700;-79.318;2022-10-15T05:11:54;99820.13;;;10.79;53.07
64139;BME280;50435;43.700;-79.318;2022-10-15T05:14:22;99815.43;;;10.78;53.26
64139;BME280;50435;43.700;-79.318;2022-10-15T05:16:50;99806.75;;;10.72;53.38
64139;BME280;50435;43.700;-79.318;2022-10-15T05:19:18;99804.79;;;10.66;53.25
64139;BME280;50435;43.700;-79.318;2022-10-15T05:21:46;99796.89;;;10.63;53.53
64139;BME280;50435;43.700;-79.318;2022-10-15T05:24:13;99788.89;;;10.61;53.52
64139;BME280;50435;43.700;-79.318;2022-10-15T05:26:41;99783.50;;;10.54;53.53
64139;BME280;50435;43.700;-79.318;2022-10-15T05:29:09;99778.84;;;10.65;53.30
64139;BME280;50435;43.700;-79.318;2022-10-15T05:31:36;99773.63;;;10.60;53.46
64139;BME280;50435;43.700;-79.318;2022-10-15T05:34:06;99775.21;;;10.60;53.39
64139;BME280;50435;43.700;-79.318;2022-10-15T05:36:34;99777.19;;;10.79;53.34
64139;BME280;50435;43.700;-79.318;2022-10-15T05:39:03;99778.01;;;10.59;53.51
64139;BME280;50435;43.700;-79.318;2022-10-15T05:41:31;99776.23;;;10.63;53.30
64139;BME280;50435;43.700;-79.318;2022-10-15T05:43:58;99780.97;;;10.84;53.34
64139;BME280;50435;43.700;-79.318;2022-10-15T05:46:27;99772.70;;;10.49;53.60
64139;BME280;50435;43.700;-79.318;2022-10-15T05:48:56;99765.39;;;10.66;53.32
64139;BME280;50435;43.700;-79.318;2022-10-15T05:51:25;99762.57;;;10.37;53.91
64139;BME280;50435;43.700;-79.318;2022-10-15T05:53:54;99767.51;;;10.49;53.67
64139;BME280;50435;43.700;-79.318;2022-10-15T05:56:23;99768.04;;;10.51;53.45
64139;BME280;50435;43.700;-79.318;2022-10-15T05:58:51;99763.54;;;10.59;53.28
64139;BME280;50435;43.700;-79.318;2022-10-15T06:01:19;99759.72;;;10.88;53.53
64139;BME280;50435;43.700;-79.318;2022-10-15T06:03:47;99759.38;;;10.39;53.82
64139;BME280;50435;43.700;-79.318;2022-10-15T06:06:16;99757.64;;;10.70;53.55
64139;BME280;50435;43.700;-79.318;2022-10-15T06:08:45;99750.11;;;10.58;53.46
64139;BME280;50435;43.700;-79.318;2022-10-15T06:11:12;99746.79;;;10.76;53.40
64139;BME280;50435;43.700;-79.318;2022-10-15T06:13:41;99748.55;;;10.56;53.44
64139;BME280;50435;43.700;-79.318;2022-10-15T06:16:10;99747.23;;;10.77;53.44
64139;BME280;50435;43.700;-79.318;2022-10-15T06:18:38;99743.43;;;10.52;53.56
64139;BME280;50435;43.700;-79.318;2022-10-15T06:21:06;99740.71;;;10.41;53.75
64139;BME280;50435;43.700;-79.318;2022-10-15T06:23:34;99733.28;;;10.62;53.61
64139;BME280;50435;43.700;-79.318;2022-10-15T06:26:02;99734.54;;;10.72;53.50
64139;BME280;50435;43.700;-79.318;2022-10-15T06:28:30;99732.90;;;10.63;53.96
64139;BME280;50435;43.700;-79.318;2022-10-15T06:30:58;99727.76;;;10.72;53.78
64139;BME280;50435;43.700;-79.318;2022-10-15T06:33:26;99729.77;;;10.34;53.92
64139;BME280;50435;43.700;-79.318;2022-10-15T06:35:54;99726.68;;;10.41;53.96
64139;BME280;50435;43.700;-79.318;2022-10-15T06:38:21;99723.65;;;10.42;54.04
64139;BME280;50435;43.700;-79.318;2022-10-15T06:40:49;99724.62;;;10.38;54.10
64139;BME280;50435;43.700;-79.318;2022-10-15T06:43:17;99723.94;;;10.62;54.07
64139;BME280;50435;43.700;-79.318;2022-10-15T06:45:45;99723.24;;;10.38;54.18
64139;BME280;50435;43.700;-79.318;2022-10-15T06:48:13;99723.85;;;10.58;54.01
64139;BME280;50435;43.700;-79.318;2022-10-15T06:50:40;99724.26;;;10.43;54.16
64139;BME280;50435;43.700;-79.318;2022-10-15T06:53:08;99720.91;;;10.65;54.07
64139;BME280;50435;43.700;-79.318;2022-10-15T06:55:36;99716.32;;;10.70;54.06
64139;BME280;50435;43.700;-79.318;2022-10-15T06:58:04;99719.14;;;10.40;54.15
64139;BME280;50435;43.700;-79.318;2022-10-15T07:00:31;99716.70;;;10.30;54.39
64139;BME280;50435;43.700;-79.318;2022-10-15T07:03:02;99713.02;;;10.32;54.47
64139;BME280;50435;43.700;-79.318;2022-10-15T07:05:30;99716.83;;;10.72;54.07
64139;BME280;50435;43.700;-79.318;2022-10-15T07:07:57;99721.90;;;10.34;54.35
64139;BME280;50435;43.700;-79.318;2022-10-15T07:10:26;99720.08;;;10.46;54.04
64139;BME280;50435;43.700;-79.318;2022-10-15T07:12:54;99716.49;;;10.33;54.48
64139;BME280;50435;43.700;-79.318;2022-10-15T07:15:21;99709.05;;;10.36;54.40
64139;BME280;50435;43.700;-79.318;2022-10-15T07:17:51;99703.93;;;10.40;54.37
64139;BME280;50435;43.700;-79.318;2022-10-15T07:20:19;99696.49;;;10.31;54.49
64139;BME280;50435;43.700;-79.318;2022-10-15T07:22:47;99692.84;;;10.70;54.16
64139;BME280;50435;43.700;-79.318;2022-10-15T07:25:16;99689.86;;;10.99;54.07
64139;BME280;50435;43.700;-79.318;2022-10-15T07:27:43;99687.14;;;10.53;54.27
64139;BME280;50435;43.700;-79.318;2022-10-15T07:30:11;99684.33;;;10.68;54.21
64139;BME280;50435;43.700;-79.318;2022-10-15T07:32:39;99681.60;;;10.49;54.28
64139;BME280;50435;43.700;-79.318;2022-10-15T07:35:07;99685.93;;;10.42;54.29
64139;BME280;50435;43.700;-79.318;2022-10-15T07:37:35;99677.07;;;10.43;54.38
64139;BME280;50435;43.700;-79.318;2022-10-15T07:40:04;99671.92;;;10.45;54.29
64139;BME280;50435;43.700;-79.318;2022-10-15T07:42:31;99669.36;;;10.80;54.13
64139;BME280;50435;43.700;-79.318;2022-10-15T07:44:59;99667.96;;;10.49;54.14
64139;BME280;50435;43.700;-79.318;2022-10-15T07:47:27;99661.94;;;10.50;54.16
64139;BME280;50435;43.700;-79.318;2022-10-15T07:49:55;99661.58;;;10.51;54.21
64139;BME280;50435;43.700;-79.318;2022-10-15T07:52:22;99659.19;;;10.94;54.20
64139;BME280;50435;43.700;-79.318;2022-10-15T07:54:50;99647.37;;;10.60;54.21
64139;BME280;50435;43.700;-79.318;2022-10-15T07:57:18;99642.66;;;10.60;54.08
64139;BME280;50435;43.700;-79.318;2022-10-15T07:59:46;99640.66;;;10.59;54.06
64139;BME280;50435;43.700;-79.318;2022-10-15T08:02:15;99634.21;;;10.82;54.08
64139;BME280;50435;43.700;-79.318;2022-10-15T08:04:43;99630.49;;;10.49;54.38
64139;BME280;50435;43.700;-79.318;2022-10-15T08:07:10;99631.02;;;10.68;53.99
64139;BME280;50435;43.700;-79.318;2022-10-15T08:09:38;99623.69;;;10.76;53.79
64139;BME280;50435;43.700;-79.318;2022-10-15T08:12:05;99620.25;;;10.80;54.06
64139;BME280;50435;43.700;-79.318;2022-10-15T08:14:33;99626.64;;;10.69;54.03
64139;BME280;50435;43.700;-79.318;2022-10-15T08:17:01;99626.55;;;10.71;54.05
64139;BME280;50435;43.700;-79.318;2022-10-15T08:19:29;99622.27;;;10.77;53.86
64139;BME280;50435;43.700;-79.318;2022-10-15T08:21:56;99624.40;;;10.76;53.94
64139;BME280;50435;43.700;-79.318;2022-10-15T08:24:24;99623.87;;;10.60;54.11
64139;BME280;50435;43.700;-79.318;2022-10-15T08:26:52;99610.69;;;10.80;53.73
64139;BME280;50435;43.700;-79.318;2022-10-15T08:29:20;99594.03;;;10.63;53.95
64139;BME280;50435;43.700;-79.318;2022-10-15T08:31:48;99577.00;;;10.73;53.81
64139;BME280;50435;43.700;-79.318;2022-10-15T08:34:16;99580.27;;;10.82;54.18
64139;BME280;50435;43.700;-79.318;2022-10-15T08:36:43;99583.45;;;10.69;54.06
64139;BME280;50435;43.700;-79.318;2022-10-15T08:39:11;99585.12;;;10.72;54.03
64139;BME280;50435;43.700;-79.318;2022-10-15T08:41:42;99581.73;;;10.67;54.07
64139;BME280;50435;43.700;-79.318;2022-10-15T08:44:18;99571.08;;;10.76;53.58
64139;BME280;50435;43.700;-79.318;2022-10-15T08:46:51;99558.90;;;10.78;54.11
64139;BME280;50435;43.700;-79.318;2022-10-15T08:49:29;99551.24;;;10.97;53.71
64139;BME280;50435;43.700;-79.318;2022-10-15T08:52:07;99543.16;;;10.73;54.02
64139;BME280;50435;43.700;-79.318;2022-10-15T08:54:39;99530.98;;;10.72;54.01
64139;BME280;50435;43.700;-79.318;2022-10-15T08:57:16;99526.81;;;10.65;54.22
64139;BME280;50435;43.700;-79.318;2022-10-15T08:59:53;99524.31;;;10.88;54.08
64139;BME280;50435;43.700;-79.318;2022-10-15T09:02:27;99517.16;;;10.64;54.16
64139;BME280;50435;43.700;-79.318;2022-10-15T09:05:00;99506.62;;;10.64;54.70
64139;BME280;50435;43.700;-79.318;2022-10-15T09:07:34;99496.44;;;10.38;54.39
64139;BME280;50435;43.700;-79.318;2022-10-15T09:10:14;99485.95;;;10.56;54.52
64139;BME280;50435;43.700;-79.318;2022-10-15T09:12:49;99478.73;;;10.59;54.41
64139;BME280;50435;43.700;-79.318;2022-10-15T09:15:22;99469.42;;;10.62;54.43
64139;BME280;50435;43.700;-79.318;2022-10-15T09:17:51;99460.13;;;10.67;54.38
64139;BME280;50435;43.700;-79.318;2022-10-15T09:20:23;99454.51;;;10.62;54.48
64139;BME280;50435;43.700;-79.318;2022-10-15T09:22:51;99453.03;;;10.64;54.62
64139;BME280;50435;43.700;-79.318;2022-10-15T09:25:21;99445.24;;;10.46;54.27
64139;BME280;50435;43.700;-79.318;2022-10-15T09:27:50;99447.22;;;10.46;54.09
64139;BME280;50435;43.700;-79.318;2022-10-15T09:30:27;99447.96;;;11.07;53.99
64139;BME280;50435;43.700;-79.318;2022-10-15T09:33:04;99440.69;;;10.98;53.64
64139;BME280;50435;43.700;-79.318;2022-10-15T09:35:38;99432.92;;;10.84;54.05
64139;BME280;50435;43.700;-79.318;2022-10-15T09:38:20;99426.30;;;10.92;53.58
64139;BME280;50435;43.700;-79.318;2022-10-15T09:41:00;99424.33;;;10.86;52.99
64139;BME280;50435;43.700;-79.318;2022-10-15T09:43:33;99412.94;;;10.97;53.17
64139;BME280;50435;43.700;-79.318;2022-10-15T09:46:02;99408.55;;;11.10;53.09
64139;BME280;50435;43.700;-79.318;2022-10-15T09:48:34;99404.12;;;11.15;53.15
64139;BME280;50435;43.700;-79.318;2022-10-15T09:51:09;99387.75;;;11.15;52.97
64139;BME280;50435;43.700;-79.318;2022-10-15T09:53:45;99374.83;;;11.24;52.89
64139;BME280;50435;43.700;-79.318;2022-10-15T09:56:19;99363.27;;;11.36;52.37
64139;BME280;50435;43.700;-79.318;2022-10-15T09:58:51;99355.30;;;11.29;52.79
64139;BME280;50435;43.700;-79.318;2022-10-15T10:01:21;99350.23;;;11.19;52.14
64139;BME280;50435;43.700;-79.318;2022-10-15T10:03:52;99344.27;;;11.47;52.18
64139;BME280;50435;43.700;-79.318;2022-10-15T10:06:21;99346.54;;;11.61;51.64
64139;BME280;50435;43.700;-79.318;2022-10-15T10:08:51;99353.07;;;11.64;51.57
64139;BME280;50435;43.700;-79.318;2022-10-15T10:11:22;99352.22;;;11.70;51.64
64139;BME280;50435;43.700;-79.318;2022-10-15T10:13:53;99339.55;;;11.85;50.93
64139;BME280;50435;43.700;-79.318;2022-10-15T10:16:22;99340.89;;;11.69;51.14
64139;BME280;50435;43.700;-79.318;2022-10-15T10:19:11;99328.92;;;11.72;51.04
64139;BME280;50435;43.700;-79.318;2022-10-15T10:21:41;99321.81;;;11.36;51.71
64139;BME280;50435;43.700;-79.318;2022-10-15T10:24:22;99323.92;;;11.75;51.31
64139;BME280;50435;43.700;-79.318;2022-10-15T10:26:51;99328.10;;;11.75;51.17
64139;BME280;50435;43.700;-79.318;2022-10-15T10:29:21;99329.89;;;11.51;50.96
64139;BME280;50435;43.700;-79.318;2022-10-15T10:31:48;99323.50;;;11.49;51.08
64139;BME280;50435;43.700;-79.318;2022-10-15T10:34:19;99312.44;;;11.73;51.19
64139;BME280;50435;43.700;-79.318;2022-10-15T10:36:50;99301.98;;;11.23;51.23
64139;BME280;50435;43.700;-79.318;2022-10-15T10:39:24;99296.85;;;11.50;50.90
64139;BME280;50435;43.700;-79.318;2022-10-15T10:41:54;99296.04;;;11.54;50.89
64139;BME280;50435;43.700;-79.318;2022-10-15T10:44:27;99297.32;;;12.10;51.06
64139;BME280;50435;43.700;-79.318;2022-10-15T10:47:09;99290.14;;;11.51;50.97
64139;BME280;50435;43.700;-79.318;2022-10-15T10:49:38;99275.57;;;11.80;50.94
64139;BME280;50435;43.700;-79.318;2022-10-15T10:52:19;99260.64;;;11.58;50.84
64139;BME280;50435;43.700;-79.318;2022-10-15T10:54:48;99237.77;;;11.82;50.80
64139;BME280;50435;43.700;-79.318;2022-10-15T10:57:25;99208.90;;;11.88;50.73
64139;BME280;50435;43.700;-79.318;2022-10-15T10:59:54;99201.59;;;11.76;50.31
64139;BME280;50435;43.700;-79.318;2022-10-15T11:02:22;99200.67;;;11.77;50.43
64139;BME280;50435;43.700;-79.318;2022-10-15T11:04:50;99200.55;;;11.74;50.41
64139;BME280;50435;43.700;-79.318;2022-10-15T11:07:23;99190.70;;;11.80;50.22
64139;BME280;50435;43.700;-79.318;2022-10-15T11:09:58;99180.35;;;11.85;49.96
64139;BME280;50435;43.700;-79.318;2022-10-15T11:12:38;99184.98;;;11.74;49.70
64139;BME280;50435;43.700;-79.318;2022-10-15T11:15:22;99178.61;;;11.72;49.56
64139;BME280;50435;43.700;-79.318;2022-10-15T11:18:04;99177.28;;;11.93;49.59
64139;BME280;50435;43.700;-79.318;2022-10-15T11:20:46;99177.02;;;11.88;49.70
64139;BME280;50435;43.700;-79.318;2022-10-15T11:23:26;99173.52;;;11.80;49.90
64139;BME280;50435;43.700;-79.318;2022-10-15T11:26:04;99186.80;;;11.88;49.67
64139;BME280;50435;43.700;-79.318;2022-10-15T11:28:45;99185.81;;;11.86;49.77
64139;BME280;50435;43.700;-79.318;2022-10-15T11:31:22;99178.38;;;12.07;49.74
64139;BME280;50435;43.700;-79.318;2022-10-15T11:34:04;99172.14;;;11.62;49.88
64139;BME280;50435;43.700;-79.318;2022-10-15T11:36:48;99165.63;;;12.14;49.65
64139;BME280;50435;43.700;-79.318;2022-10-15T11:39:28;99172.23;;;11.69;49.39
64139;BME280;50435;43.700;-79.318;2022-10-15T11:42:06;99166.90;;;12.15;49.67
64139;BME280;50435;43.700;-79.318;2022-10-15T11:44:52;99153.01;;;11.97;49.60
64139;BME280;50435;43.700;-79.318;2022-10-15T11:47:31;99177.22;;;11.78;49.81
64139;BME280;50435;43.700;-79.318;2022-10-15T11:50:14;99177.25;;;12.17;49.55
64139;BME280;50435;43.700;-79.318;2022-10-15T11:52:54;99178.78;;;11.92;49.39
64139;BME280;50435;43.700;-79.318;2022-10-15T11:55:31;99178.10;;;11.77;49.28
64139;BME280;50435;43.700;-79.318;2022-10-15T11:58:05;99177.71;;;12.23;49.29
64139;BME280;50435;43.700;-79.318;2022-10-15T12:00:38;99172.94;;;11.66;49.47
64139;BME280;50435;43.700;-79.318;2022-10-15T12:03:13;99172.36;;;11.98;49.23
64139;BME280;50435;43.700;-79.318;2022-10-15T12:05:46;99177.88;;;11.95;49.23
64139;BME280;50435;43.700;-79.318;2022-10-15T12:08:16;99171.89;;;11.87;49.61
64139;BME280;50435;43.700;-79.318;2022-10-15T12:10:55;99176.88;;;11.69;49.59
64139;BME280;50435;43.700;-79.318;2022-10-15T12:13:33;99180.09;;;11.84;49.70
64139;BME280;50435;43.700;-79.318;2022-10-15T12:16:12;99176.21;;;11.69;49.67
64139;BME280;50435;43.700;-79.318;2022-10-15T12:18:45;99177.14;;;11.91;49.57
64139;BME280;50435;43.700;-79.318;2022-10-15T12:22:02;99178.11;;;12.26;49.31
64139;BME280;50435;43.700;-79.318;2022-10-15T12:25:03;99177.33;;;11.75;49.60
64139;BME280;50435;43.700;-79.318;2022-10-15T12:27:33;99175.89;;;11.93;49.61
64139;BME280;50435;43.700;-79.318;2022-10-15T12:30:33;99184.74;;;12.25;49.66
64139;BME280;50435;43.700;-79.318;2022-10-15T12:33:03;99183.50;;;12.18;49.84
64139;BME280;50435;43.700;-79.318;2022-10-15T12:35:36;99176.18;;;12.20;49.73
64139;BME280;50435;43.700;-79.318;2022-10-15T12:38:19;99168.55;;;12.06;49.59
64139;BME280;50435;43.700;-79.318;2022-10-15T12:44:19;99186.04;;;9.43;58.34
64139;BME280;50435;43.700;-79.318;2022-10-15T12:46:47;99180.25;;;10.51;54.27
64139;BME280;50435;43.700;-79.318;2022-10-15T12:50:00;99184.21;;;11.22;51.44
64139;BME280;50435;43.700;-79.318;2022-10-15T12:53:01;99180.96;;;12.05;49.36
64139;BME280;50435;43.700;-79.318;2022-10-15T12:55:32;99164.32;;;12.21;48.26
64139;BME280;50435;43.700;-79.318;2022-10-15T12:58:03;99171.75;;;12.39;47.12
64139;BME280;50435;43.700;-79.318;2022-10-15T13:00:40;99171.48;;;12.54;47.44
64139;BME280;50435;43.700;-79.318;2022-10-15T13:03:22;99171.61;;;12.64;46.90
64139;BME280;50435;43.700;-79.318;2022-10-15T13:05:51;99170.28;;;12.78;46.75